sensor_id;sensor_type;location;lat;lon;timestamp;P1;durP1;ratioP1;P2;durP2;ratioP2
74229;SDS011;62589;12.568;99.958;2023-04-08T00:00:05;19.50;;;16.10;;
74229;SDS011;62589;12.568;99.958;2023-04-08T00:02:33;21.98;;;14.90;;
74229;SDS011;62589;12.568;99.958;2023-04-08T00:04:59;18.15;;;15.18;;
74229;SDS011;62589;12.568;99.958;2023-04-08T00:07:26;18.98;;;14.05;;
74229;SDS011;62589;12.568;99.958;2023-04-08T00:09:52;18.50;;;13.07;;
74229;SDS011;62589;12.568;99.958;2023-04-08T00:12:19;15.10;;;13.50;;
74229;SDS011;62589;12.568;99.958;2023-04-08T00:14:45;17.02;;;14.50;;
74229;SDS011;62589;12.568;99.958;2023-04-08T00:17:12;17.15;;;13.77;;
74229;SDS011;62589;12.568;99.958;2023-04-08T00:19:38;20.15;;;13.40;;
74229;SDS011;62589;12.568;99.958;2023-04-08T00:22:05;15.18;;;13.35;;
74229;SDS011;62589;12.568;99.958;2023-04-08T00:24:36;14.88;;;13.32;;
74229;SDS011;62589;12.568;99.958;2023-04-08T00:27:02;19.25;;;14.45;;
74229;SDS011;62589;12.568;99.958;2023-04-08T00:29:29;17.73;;;13.63;;
74229;SDS011;62589;12.568;99.958;2023-04-08T00:31:56;15.25;;;12.95;;
74229;SDS011;62589;12.568;99.958;2023-04-08T00:34:26;13.57;;;12.18;;
74229;SDS011;62589;12.568;99.958;2023-04-08T00:36:52;18.75;;;13.25;;
74229;SDS011;62589;12.568;99.958;2023-04-08T00:39:19;15.68;;;13.32;;
74229;SDS011;62589;12.568;99.958;2023-04-08T00:41:45;15.52;;;13.88;;
74229;SDS011;62589;12.568;99.958;2023-04-08T00:44:11;16.65;;;12.85;;
74229;SDS011;62589;12.568;99.958;2023-04-08T00:46:38;14.65;;;13.10;;
74229;SDS011;62589;12.568;99.958;2023-04-08T00:49:05;15.68;;;13.40;;
74229;SDS011;62589;12.568;99.958;2023-04-08T00:51:32;16.90;;;13.48;;
74229;SDS011;62589;12.568;99.958;2023-04-08T00:54:04;16.95;;;12.68;;
74229;SDS011;62589;12.568;99.958;2023-04-08T00:56:32;15.75;;;14.00;;
74229;SDS011;62589;12.568;99.958;2023-04-08T00:58:59;14.25;;;12.00;;
74229;SDS011;62589;12.568;99.958;2023-04-08T01:04:50;16.35;;;12.82;;
74229;SDS011;62589;12.568;99.958;2023-04-08T01:07:26;14.93;;;12.98;;
74229;SDS011;62589;12.568;99.958;2023-04-08T01:10:04;15.40;;;13.75;;
74229;SDS011;62589;12.568;99.958;2023-04-08T01:12:41;19.50;;;14.07;;
74229;SDS011;62589;12.568;99.958;2023-04-08T01:15:13;15.48;;;13.73;;
74229;SDS011;62589;12.568;99.958;2023-04-08T01:17:40;19.75;;;14.00;;
74229;SDS011;62589;12.568;99.958;2023-04-08T01:20:09;17.40;;;14.00;;
74229;SDS011;62589;12.568;99.958;2023-04-08T01:25:36;17.88;;;13.48;;
74229;SDS011;62589;12.568;99.958;2023-04-08T01:28:07;16.77;;;13.82;;
74229;SDS011;62589;12.568;99.958;2023-04-08T01:30:40;20.23;;;16.63;;
74229;SDS011;62589;12.568;99.958;2023-04-08T01:33:11;26.45;;;17.55;;
74229;SDS011;62589;12.568;99.958;2023-04-08T01:35:39;24.33;;;17.83;;
74229;SDS011;62589;12.568;99.958;2023-04-08T01:38:07;19.58;;;16.27;;
74229;SDS011;62589;12.568;99.958;2023-04-08T01:40:36;23.88;;;17.98;;
74229;SDS011;62589;12.568;99.958;2023-04-08T01:43:06;23.05;;;17.13;;
74229;SDS011;62589;12.568;99.958;2023-04-08T01:45:34;23.05;;;17.67;;
74229;SDS011;62589;12.568;99.958;2023-04-08T01:48:01;20.40;;;15.75;;
74229;SDS011;62589;12.568;99.958;2023-04-08T01:50:28;22.42;;;18.15;;
74229;SDS011;62589;12.568;99.958;2023-04-08T01:57:31;24.42;;;18.23;;
74229;SDS011;62589;12.568;99.958;2023-04-08T02:00:03;22.40;;;18.48;;
74229;SDS011;62589;12.568;99.958;2023-04-08T02:02:32;21.65;;;17.48;;
74229;SDS011;62589;12.568;99.958;2023-04-08T02:05:01;21.77;;;17.27;;
74229;SDS011;62589;12.568;99.958;2023-04-08T02:07:27;19.95;;;16.35;;
74229;SDS011;62589;12.568;99.958;2023-04-08T02:09:57;22.67;;;16.75;;
74229;SDS011;62589;12.568;99.958;2023-04-08T02:12:24;21.25;;;17.17;;
74229;SDS011;62589;12.568;99.958;2023-04-08T02:14:52;20.83;;;17.27;;
74229;SDS011;62589;12.568;99.958;2023-04-08T02:20:13;22.05;;;16.77;;
74229;SDS011;62589;12.568;99.958;2023-04-08T02:23:13;20.95;;;16.77;;
74229;SDS011;62589;12.568;99.958;2023-04-08T02:25:44;20.00;;;17.77;;
74229;SDS011;62589;12.568;99.958;2023-04-08T02:28:12;24.00;;;17.45;;
74229;SDS011;62589;12.568;99.958;2023-04-08T02:30:47;22.50;;;17.67;;
74229;SDS011;62589;12.568;99.958;2023-04-08T02:33:19;23.48;;;17.00;;
74229;SDS011;62589;12.568;99.958;2023-04-08T02:35:48;21.77;;;17.33;;
74229;SDS011;62589;12.568;99.958;2023-04-08T02:38:16;21.23;;;17.88;;
74229;SDS011;62589;12.568;99.958;2023-04-08T02:40:42;20.65;;;17.25;;
74229;SDS011;62589;12.568;99.958;2023-04-08T02:43:09;18.90;;;16.90;;
74229;SDS011;62589;12.568;99.958;2023-04-08T02:45:40;23.65;;;18.15;;
74229;SDS011;62589;12.568;99.958;2023-04-08T02:48:13;21.08;;;17.23;;
74229;SDS011;62589;12.568;99.958;2023-04-08T02:50:39;22.08;;;17.05;;
74229;SDS011;62589;12.568;99.958;2023-04-08T02:53:07;20.95;;;17.20;;
74229;SDS011;62589;12.568;99.958;2023-04-08T02:55:33;17.63;;;15.73;;
74229;SDS011;62589;12.568;99.958;2023-04-08T02:58:00;22.90;;;17.98;;
74229;SDS011;62589;12.568;99.958;2023-04-08T03:00:26;21.58;;;17.38;;
74229;SDS011;62589;12.568;99.958;2023-04-08T03:02:53;24.45;;;17.15;;
74229;SDS011;62589;12.568;99.958;2023-04-08T03:05:19;24.45;;;17.50;;
74229;SDS011;62589;12.568;99.958;2023-04-08T03:07:46;19.55;;;17.10;;
74229;SDS011;62589;12.568;99.958;2023-04-08T03:10:12;23.02;;;16.73;;
74229;SDS011;62589;12.568;99.958;2023-04-08T03:12:39;21.42;;;17.10;;
74229;SDS011;62589;12.568;99.958;2023-04-08T03:15:05;19.23;;;16.27;;
74229;SDS011;62589;12.568;99.958;2023-04-08T03:17:32;18.85;;;15.85;;
74229;SDS011;62589;12.568;99.958;2023-04-08T03:19:59;21.27;;;15.80;;
74229;SDS011;62589;12.568;99.958;2023-04-08T03:22:26;24.30;;;16.73;;
74229;SDS011;62589;12.568;99.958;2023-04-08T03:24:52;18.73;;;15.85;;
74229;SDS011;62589;12.568;99.958;2023-04-08T03:27:18;20.50;;;16.02;;
74229;SDS011;62589;12.568;99.958;2023-04-08T03:29:45;23.52;;;16.17;;
74229;SDS011;62589;12.568;99.958;2023-04-08T03:32:12;19.33;;;17.02;;
74229;SDS011;62589;12.568;99.958;2023-04-08T03:34:38;21.02;;;16.73;;
74229;SDS011;62589;12.568;99.958;2023-04-08T03:37:05;18.73;;;15.02;;
74229;SDS011;62589;12.568;99.958;2023-04-08T03:39:32;23.23;;;17.20;;
74229;SDS011;62589;12.568;99.958;2023-04-08T03:41:58;19.13;;;16.52;;
74229;SDS011;62589;12.568;99.958;2023-04-08T03:44:25;20.48;;;17.17;;
74229;SDS011;62589;12.568;99.958;2023-04-08T03:46:52;20.08;;;16.08;;
74229;SDS011;62589;12.568;99.958;2023-04-08T03:49:19;20.77;;;16.13;;
74229;SDS011;62589;12.568;99.958;2023-04-08T03:51:45;20.17;;;15.80;;
74229;SDS011;62589;12.568;99.958;2023-04-08T03:54:12;21.02;;;15.00;;
74229;SDS011;62589;12.568;99.958;2023-04-08T03:56:38;20.27;;;14.10;;
74229;SDS011;62589;12.568;99.958;2023-04-08T03:59:05;21.38;;;14.68;;
74229;SDS011;62589;12.568;99.958;2023-04-08T04:03:59;19.95;;;14.25;;
74229;SDS011;62589;12.568;99.958;2023-04-08T04:06:25;18.95;;;15.05;;
74229;SDS011;62589;12.568;99.958;2023-04-08T04:08:52;18.77;;;14.63;;
74229;SDS011;62589;12.568;99.958;2023-04-08T04:11:22;22.20;;;15.40;;
74229;SDS011;62589;12.568;99.958;2023-04-08T04:13:48;22.90;;;16.25;;
74229;SDS011;62589;12.568;99.958;2023-04-08T04:16:14;19.52;;;14.82;;
74229;SDS011;62589;12.568;99.958;2023-04-08T04:18:41;19.73;;;15.73;;
74229;SDS011;62589;12.568;99.958;2023-04-08T04:21:07;17.80;;;14.73;;
74229;SDS011;62589;12.568;99.958;2023-04-08T04:23:34;19.95;;;15.45;;
74229;SDS011;62589;12.568;99.958;2023-04-08T04:26:00;17.65;;;14.63;;
74229;SDS011;62589;12.568;99.958;2023-04-08T04:28:32;19.48;;;14.82;;
74229;SDS011;62589;12.568;99.958;2023-04-08T04:30:59;16.08;;;14.15;;
74229;SDS011;62589;12.568;99.958;2023-04-08T04:33:25;18.98;;;14.73;;
74229;SDS011;62589;12.568;99.958;2023-04-08T04:35:52;16.75;;;14.30;;
74229;SDS011;62589;12.568;99.958;2023-04-08T04:38:18;19.25;;;14.55;;
74229;SDS011;62589;12.568;99.958;2023-04-08T04:40:45;15.30;;;13.48;;
74229;SDS011;62589;12.568;99.958;2023-04-08T04:43:11;15.85;;;13.77;;
74229;SDS011;62589;12.568;99.958;2023-04-08T04:45:38;17.50;;;13.45;;
74229;SDS011;62589;12.568;99.958;2023-04-08T04:48:05;20.58;;;13.23;;
74229;SDS011;62589;12.568;99.958;2023-04-08T04:50:31;16.48;;;13.77;;
74229;SDS011;62589;12.568;99.958;2023-04-08T04:52:57;18.30;;;15.50;;
74229;SDS011;62589;12.568;99.958;2023-04-08T04:55:24;19.45;;;15.23;;
74229;SDS011;62589;12.568;99.958;2023-04-08T04:57:50;22.63;;;15.15;;
74229;SDS011;62589;12.568;99.958;2023-04-08T05:00:17;17.30;;;13.70;;
74229;SDS011;62589;12.568;99.958;2023-04-08T05:02:43;18.77;;;14.35;;
74229;SDS011;62589;12.568;99.958;2023-04-08T05:05:10;18.48;;;14.90;;
74229;SDS011;62589;12.568;99.958;2023-04-08T05:07:37;15.27;;;13.57;;
74229;SDS011;62589;12.568;99.958;2023-04-08T05:10:04;16.33;;;14.25;;
74229;SDS011;62589;12.568;99.958;2023-04-08T05:12:31;22.88;;;15.90;;
74229;SDS011;62589;12.568;99.958;2023-04-08T05:14:57;16.55;;;14.80;;
74229;SDS011;62589;12.568;99.958;2023-04-08T05:17:24;15.82;;;14.15;;
74229;SDS011;62589;12.568;99.958;2023-04-08T05:19:50;18.08;;;14.93;;
74229;SDS011;62589;12.568;99.958;2023-04-08T05:22:17;21.13;;;14.70;;
74229;SDS011;62589;12.568;99.958;2023-04-08T05:24:44;18.95;;;14.80;;
74229;SDS011;62589;12.568;99.958;2023-04-08T05:27:10;20.38;;;15.43;;
74229;SDS011;62589;12.568;99.958;2023-04-08T05:29:37;18.25;;;14.90;;
74229;SDS011;62589;12.568;99.958;2023-04-08T05:32:03;21.23;;;16.13;;
74229;SDS011;62589;12.568;99.958;2023-04-08T05:34:30;18.50;;;15.20;;
74229;SDS011;62589;12.568;99.958;2023-04-08T05:36:57;26.30;;;17.13;;
74229;SDS011;62589;12.568;99.958;2023-04-08T05:39:23;23.80;;;16.88;;
74229;SDS011;62589;12.568;99.958;2023-04-08T05:41:50;21.88;;;17.10;;
74229;SDS011;62589;12.568;99.958;2023-04-08T05:44:16;20.38;;;14.75;;
74229;SDS011;62589;12.568;99.958;2023-04-08T05:46:43;18.77;;;13.93;;
74229;SDS011;62589;12.568;99.958;2023-04-08T05:49:09;17.67;;;13.75;;
74229;SDS011;62589;12.568;99.958;2023-04-08T05:51:36;21.02;;;15.10;;
74229;SDS011;62589;12.568;99.958;2023-04-08T05:54:03;15.32;;;13.73;;
74229;SDS011;62589;12.568;99.958;2023-04-08T05:56:30;15.25;;;13.43;;
74229;SDS011;62589;12.568;99.958;2023-04-08T05:58:57;17.98;;;13.57;;
74229;SDS011;62589;12.568;99.958;2023-04-08T06:01:23;18.75;;;13.73;;
74229;SDS011;62589;12.568;99.958;2023-04-08T06:03:50;17.00;;;13.65;;
74229;SDS011;62589;12.568;99.958;2023-04-08T06:06:17;18.45;;;13.07;;
74229;SDS011;62589;12.568;99.958;2023-04-08T06:08:44;19.30;;;14.00;;
74229;SDS011;62589;12.568;99.958;2023-04-08T06:11:11;14.30;;;12.80;;
74229;SDS011;62589;12.568;99.958;2023-04-08T06:13:37;18.77;;;12.77;;
74229;SDS011;62589;12.568;99.958;2023-04-08T06:16:14;15.23;;;12.20;;
74229;SDS011;62589;12.568;99.958;2023-04-08T06:18:41;16.38;;;13.07;;
74229;SDS011;62589;12.568;99.958;2023-04-08T06:21:08;14.88;;;12.57;;
74229;SDS011;62589;12.568;99.958;2023-04-08T06:23:36;16.83;;;12.73;;
74229;SDS011;62589;12.568;99.958;2023-04-08T06:26:02;15.82;;;12.35;;
74229;SDS011;62589;12.568;99.958;2023-04-08T06:28:29;19.55;;;13.23;;
74229;SDS011;62589;12.568;99.958;2023-04-08T06:30:56;17.73;;;12.65;;
74229;SDS011;62589;12.568;99.958;2023-04-08T06:33:23;17.10;;;13.45;;
74229;SDS011;62589;12.568;99.958;2023-04-08T06:35:50;15.85;;;13.15;;
74229;SDS011;62589;12.568;99.958;2023-04-08T06:38:17;15.93;;;12.82;;
74229;SDS011;62589;12.568;99.958;2023-04-08T06:40:43;14.55;;;12.82;;
74229;SDS011;62589;12.568;99.958;2023-04-08T06:43:09;15.98;;;12.35;;
74229;SDS011;62589;12.568;99.958;2023-04-08T06:45:36;13.60;;;12.20;;
74229;SDS011;62589;12.568;99.958;2023-04-08T06:48:02;15.90;;;12.73;;
74229;SDS011;62589;12.568;99.958;2023-04-08T06:50:29;17.77;;;11.93;;
74229;SDS011;62589;12.568;99.958;2023-04-08T06:52:55;14.73;;;12.63;;
74229;SDS011;62589;12.568;99.958;2023-04-08T06:55:22;15.77;;;12.30;;
74229;SDS011;62589;12.568;99.958;2023-04-08T06:57:48;15.57;;;12.02;;
74229;SDS011;62589;12.568;99.958;2023-04-08T07:00:15;16.15;;;11.85;;
74229;SDS011;62589;12.568;99.958;2023-04-08T07:02:41;16.83;;;12.55;;
74229;SDS011;62589;12.568;99.958;2023-04-08T07:05:09;16.98;;;12.07;;
74229;SDS011;62589;12.568;99.958;2023-04-08T07:07:35;13.73;;;11.77;;
74229;SDS011;62589;12.568;99.958;2023-04-08T07:10:02;14.05;;;12.50;;
74229;SDS011;62589;12.568;99.958;2023-04-08T07:12:29;20.42;;;12.50;;
74229;SDS011;62589;12.568;99.958;2023-04-08T07:14:55;14.63;;;11.13;;
74229;SDS011;62589;12.568;99.958;2023-04-08T07:17:21;14.07;;;10.98;;
74229;SDS011;62589;12.568;99.958;2023-04-08T07:19:48;12.93;;;9.43;;
74229;SDS011;62589;12.568;99.958;2023-04-08T07:22:14;16.23;;;9.88;;
74229;SDS011;62589;12.568;99.958;2023-04-08T07:24:41;17.45;;;8.52;;
74229;SDS011;62589;12.568;99.958;2023-04-08T07:27:10;12.00;;;8.85;;
74229;SDS011;62589;12.568;99.958;2023-04-08T07:29:36;10.50;;;9.43;;
74229;SDS011;62589;12.568;99.958;2023-04-08T07:32:02;11.18;;;9.73;;
74229;SDS011;62589;12.568;99.958;2023-04-08T07:34:29;11.73;;;10.30;;
74229;SDS011;62589;12.568;99.958;2023-04-08T07:36:55;14.65;;;11.00;;
74229;SDS011;62589;12.568;99.958;2023-04-08T07:39:22;15.15;;;9.82;;
74229;SDS011;62589;12.568;99.958;2023-04-08T07:41:48;11.80;;;9.25;;
74229;SDS011;62589;12.568;99.958;2023-04-08T07:44:14;14.07;;;11.02;;
74229;SDS011;62589;12.568;99.958;2023-04-08T07:46:41;13.80;;;10.80;;
74229;SDS011;62589;12.568;99.958;2023-04-08T07:49:09;11.88;;;9.70;;
74229;SDS011;62589;12.568;99.958;2023-04-08T07:51:36;13.65;;;10.07;;
74229;SDS011;62589;12.568;99.958;2023-04-08T07:54:03;13.55;;;9.77;;
74229;SDS011;62589;12.568;99.958;2023-04-08T07:56:30;10.90;;;9.57;;
74229;SDS011;62589;12.568;99.958;2023-04-08T07:58:56;14.63;;;10.77;;
74229;SDS011;62589;12.568;99.958;2023-04-08T08:01:23;14.55;;;10.73;;
74229;SDS011;62589;12.568;99.958;2023-04-08T08:03:50;12.63;;;11.30;;
74229;SDS011;62589;12.568;99.958;2023-04-08T08:06:17;16.17;;;12.00;;
74229;SDS011;62589;12.568;99.958;2023-04-08T08:08:43;14.88;;;11.07;;
74229;SDS011;62589;12.568;99.958;2023-04-08T08:11:09;13.45;;;10.88;;
74229;SDS011;62589;12.568;99.958;2023-04-08T08:13:36;14.23;;;11.27;;
74229;SDS011;62589;12.568;99.958;2023-04-08T08:16:02;16.88;;;11.65;;
74229;SDS011;62589;12.568;99.958;2023-04-08T08:18:33;15.43;;;12.63;;
74229;SDS011;62589;12.568;99.958;2023-04-08T08:21:00;16.67;;;12.77;;
74229;SDS011;62589;12.568;99.958;2023-04-08T08:23:27;15.02;;;12.40;;
74229;SDS011;62589;12.568;99.958;2023-04-08T08:26:00;14.10;;;12.57;;
74229;SDS011;62589;12.568;99.958;2023-04-08T08:28:27;16.90;;;12.80;;
74229;SDS011;62589;12.568;99.958;2023-04-08T08:30:54;14.00;;;12.52;;
74229;SDS011;62589;12.568;99.958;2023-04-08T08:33:20;14.52;;;12.40;;
74229;SDS011;62589;12.568;99.958;2023-04-08T08:35:47;15.57;;;12.02;;
74229;SDS011;62589;12.568;99.958;2023-04-08T08:38:13;19.38;;;12.13;;
74229;SDS011;62589;12.568;99.958;2023-04-08T08:40:42;13.07;;;11.77;;
74229;SDS011;62589;12.568;99.958;2023-04-08T08:43:09;18.17;;;12.93;;
74229;SDS011;62589;12.568;99.958;2023-04-08T08:45:39;14.05;;;11.10;;
74229;SDS011;62589;12.568;99.958;2023-04-08T08:48:07;16.45;;;11.88;;
74229;SDS011;62589;12.568;99.958;2023-04-08T08:50:34;15.38;;;11.77;;
74229;SDS011;62589;12.568;99.958;2023-04-08T08:53:01;18.52;;;12.05;;
74229;SDS011;62589;12.568;99.958;2023-04-08T08:55:29;16.23;;;13.68;;
74229;SDS011;62589;12.568;99.958;2023-04-08T08:57:58;18.55;;;13.40;;
74229;SDS011;62589;12.568;99.958;2023-04-08T09:06:00;16.23;;;13.07;;
74229;SDS011;62589;12.568;99.958;2023-04-08T09:08:29;16.70;;;13.10;;
74229;SDS011;62589;12.568;99.958;2023-04-08T09:13:46;16.88;;;13.77;;
74229;SDS011;62589;12.568;99.958;2023-04-08T09:16:14;16.02;;;13.20;;
74229;SDS011;62589;12.568;99.958;2023-04-08T09:18:47;16.00;;;12.95;;
74229;SDS011;62589;12.568;99.958;2023-04-08T09:21:15;14.63;;;12.57;;
74229;SDS011;62589;12.568;99.958;2023-04-08T09:23:43;20.77;;;13.55;;
74229;SDS011;62589;12.568;99.958;2023-04-08T09:26:15;17.95;;;14.05;;
74229;SDS011;62589;12.568;99.958;2023-04-08T09:28:56;16.17;;;14.05;;
74229;SDS011;62589;12.568;99.958;2023-04-08T09:31:40;22.08;;;13.55;;
74229;SDS011;62589;12.568;99.958;2023-04-08T09:34:14;21.23;;;14.35;;
74229;SDS011;62589;12.568;99.958;2023-04-08T09:36:43;18.38;;;13.20;;
74229;SDS011;62589;12.568;99.958;2023-04-08T09:39:10;43.25;;;14.10;;
74229;SDS011;62589;12.568;99.958;2023-04-08T09:41:37;16.42;;;12.65;;
74229;SDS011;62589;12.568;99.958;2023-04-08T09:44:05;16.98;;;12.98;;
74229;SDS011;62589;12.568;99.958;2023-04-08T09:46:39;16.83;;;12.77;;
74229;SDS011;62589;12.568;99.958;2023-04-08T09:52:20;22.45;;;13.25;;
74229;SDS011;62589;12.568;99.958;2023-04-08T09:55:04;20.38;;;12.65;;
74229;SDS011;62589;12.568;99.958;2023-04-08T09:57:40;18.30;;;13.52;;
74229;SDS011;62589;12.568;99.958;2023-04-08T10:00:15;14.95;;;13.40;;
74229;SDS011;62589;12.568;99.958;2023-04-08T10:05:26;17.48;;;12.50;;
74229;SDS011;62589;12.568;99.958;2023-04-08T10:07:54;13.88;;;12.40;;
74229;SDS011;62589;12.568;99.958;2023-04-08T10:10:22;18.85;;;12.43;;
74229;SDS011;62589;12.568;99.958;2023-04-08T10:12:50;15.05;;;11.60;;
74229;SDS011;62589;12.568;99.958;2023-04-08T10:18:28;13.57;;;11.48;;
74229;SDS011;62589;12.568;99.958;2023-04-08T10:20:58;16.13;;;11.45;;
74229;SDS011;62589;12.568;99.958;2023-04-08T10:23:52;12.10;;;10.48;;
74229;SDS011;62589;12.568;99.958;2023-04-08T10:26:31;16.73;;;10.60;;
74229;SDS011;62589;12.568;99.958;2023-04-08T10:31:58;12.63;;;11.20;;
74229;SDS011;62589;12.568;99.958;2023-04-08T10:34:26;19.40;;;11.45;;
74229;SDS011;62589;12.568;99.958;2023-04-08T10:36:53;18.02;;;10.75;;
74229;SDS011;62589;12.568;99.958;2023-04-08T10:39:21;12.40;;;9.93;;
74229;SDS011;62589;12.568;99.958;2023-04-08T10:41:48;11.63;;;9.18;;
74229;SDS011;62589;12.568;99.958;2023-04-08T10:44:16;13.55;;;9.95;;
74229;SDS011;62589;12.568;99.958;2023-04-08T10:46:49;10.60;;;9.50;;
74229;SDS011;62589;12.568;99.958;2023-04-08T10:49:16;11.38;;;9.45;;
74229;SDS011;62589;12.568;99.958;2023-04-08T10:51:44;10.70;;;9.02;;
74229;SDS011;62589;12.568;99.958;2023-04-08T10:54:12;13.07;;;10.10;;
74229;SDS011;62589;12.568;99.958;2023-04-08T10:56:44;17.30;;;9.55;;
74229;SDS011;62589;12.568;99.958;2023-04-08T10:59:16;10.88;;;9.23;;
74229;SDS011;62589;12.568;99.958;2023-04-08T11:13:37;10.57;;;9.45;;
74229;SDS011;62589;12.568;99.958;2023-04-08T11:16:06;13.55;;;9.80;;
74229;SDS011;62589;12.568;99.958;2023-04-08T11:18:35;12.20;;;9.38;;
74229;SDS011;62589;12.568;99.958;2023-04-08T11:21:07;11.27;;;9.50;;
74229;SDS011;62589;12.568;99.958;2023-04-08T11:23:35;12.15;;;9.80;;
74229;SDS011;62589;12.568;99.958;2023-04-08T11:26:02;12.02;;;8.73;;
74229;SDS011;62589;12.568;99.958;2023-04-08T11:28:29;10.82;;;8.95;;
74229;SDS011;62589;12.568;99.958;2023-04-08T11:30:56;12.70;;;9.52;;
74229;SDS011;62589;12.568;99.958;2023-04-08T11:33:24;12.32;;;10.23;;
74229;SDS011;62589;12.568;99.958;2023-04-08T11:35:51;11.57;;;9.73;;
74229;SDS011;62589;12.568;99.958;2023-04-08T11:38:21;12.85;;;8.90;;
74229;SDS011;62589;12.568;99.958;2023-04-08T11:40:52;13.00;;;9.65;;
74229;SDS011;62589;12.568;99.958;2023-04-08T11:43:19;12.93;;;9.38;;
74229;SDS011;62589;12.568;99.958;2023-04-08T11:45:46;19.70;;;9.55;;
74229;SDS011;62589;12.568;99.958;2023-04-08T11:48:14;15.02;;;9.38;;
74229;SDS011;62589;12.568;99.958;2023-04-08T11:50:42;13.07;;;9.95;;
74229;SDS011;62589;12.568;99.958;2023-04-08T11:53:19;17.27;;;9.25;;
74229;SDS011;62589;12.568;99.958;2023-04-08T11:55:47;11.00;;;8.30;;
74229;SDS011;62589;12.568;99.958;2023-04-08T11:58:13;9.52;;;8.52;;
74229;SDS011;62589;12.568;99.958;2023-04-08T12:00:40;11.05;;;8.38;;
74229;SDS011;62589;12.568;99.958;2023-04-08T12:03:08;8.88;;;7.55;;
74229;SDS011;62589;12.568;99.958;2023-04-08T12:05:38;9.13;;;7.40;;
74229;SDS011;62589;12.568;99.958;2023-04-08T12:08:05;8.73;;;7.28;;
74229;SDS011;62589;12.568;99.958;2023-04-08T12:10:34;8.75;;;7.85;;
74229;SDS011;62589;12.568;99.958;2023-04-08T12:13:01;9.70;;;7.88;;
74229;SDS011;62589;12.568;99.958;2023-04-08T12:15:27;10.73;;;8.85;;
74229;SDS011;62589;12.568;99.958;2023-04-08T12:17:54;10.43;;;8.57;;
74229;SDS011;62589;12.568;99.958;2023-04-08T12:20:20;10.45;;;8.73;;
74229;SDS011;62589;12.568;99.958;2023-04-08T12:22:46;11.00;;;8.68;;
74229;SDS011;62589;12.568;99.958;2023-04-08T12:25:16;11.05;;;9.18;;
74229;SDS011;62589;12.568;99.958;2023-04-08T12:27:42;13.55;;;10.02;;
74229;SDS011;62589;12.568;99.958;2023-04-08T12:30:09;10.55;;;9.25;;
74229;SDS011;62589;12.568;99.958;2023-04-08T12:32:36;11.32;;;9.00;;
74229;SDS011;62589;12.568;99.958;2023-04-08T12:35:02;8.82;;;7.93;;
74229;SDS011;62589;12.568;99.958;2023-04-08T12:37:29;9.68;;;8.30;;
74229;SDS011;62589;12.568;99.958;2023-04-08T12:39:57;11.07;;;7.60;;
74229;SDS011;62589;12.568;99.958;2023-04-08T12:42:23;11.55;;;7.60;;
74229;SDS011;62589;12.568;99.958;2023-04-08T12:44:53;8.00;;;7.20;;
74229;SDS011;62589;12.568;99.958;2023-04-08T12:47:19;12.43;;;7.63;;
74229;SDS011;62589;12.568;99.958;2023-04-08T12:49:48;10.25;;;7.63;;
74229;SDS011;62589;12.568;99.958;2023-04-08T12:52:15;9.40;;;7.70;;
74229;SDS011;62589;12.568;99.958;2023-04-08T12:54:41;8.10;;;6.68;;
74229;SDS011;62589;12.568;99.958;2023-04-08T12:57:08;10.68;;;7.25;;
74229;SDS011;62589;12.568;99.958;2023-04-08T12:59:34;13.38;;;7.60;;
74229;SDS011;62589;12.568;99.958;2023-04-08T13:02:02;10.45;;;7.97;;
74229;SDS011;62589;12.568;99.958;2023-04-08T13:04:28;10.85;;;7.70;;
74229;SDS011;62589;12.568;99.958;2023-04-08T13:06:55;9.23;;;7.57;;
74229;SDS011;62589;12.568;99.958;2023-04-08T13:09:21;8.25;;;6.45;;
74229;SDS011;62589;12.568;99.958;2023-04-08T13:11:48;13.05;;;7.90;;
74229;SDS011;62589;12.568;99.958;2023-04-08T13:14:14;8.98;;;7.70;;
74229;SDS011;62589;12.568;99.958;2023-04-08T13:16:41;9.30;;;7.85;;
74229;SDS011;62589;12.568;99.958;2023-04-08T13:19:08;9.63;;;8.02;;
74229;SDS011;62589;12.568;99.958;2023-04-08T13:21:34;11.32;;;8.77;;
74229;SDS011;62589;12.568;99.958;2023-04-08T13:24:00;11.43;;;7.60;;
74229;SDS011;62589;12.568;99.958;2023-04-08T13:26:27;13.02;;;7.63;;
74229;SDS011;62589;12.568;99.958;2023-04-08T13:28:53;12.50;;;8.18;;
74229;SDS011;62589;12.568;99.958;2023-04-08T13:31:20;8.02;;;7.22;;
74229;SDS011;62589;12.568;99.958;2023-04-08T13:33:46;10.00;;;8.45;;
74229;SDS011;62589;12.568;99.958;2023-04-08T13:36:12;9.35;;;8.38;;
74229;SDS011;62589;12.568;99.958;2023-04-08T13:38:39;9.63;;;8.45;;
74229;SDS011;62589;12.568;99.958;2023-04-08T13:41:05;9.27;;;7.97;;
74229;SDS011;62589;12.568;99.958;2023-04-08T13:43:32;11.13;;;8.10;;
74229;SDS011;62589;12.568;99.958;2023-04-08T13:45:58;10.90;;;7.95;;
74229;SDS011;62589;12.568;99.958;2023-04-08T13:48:24;11.75;;;8.30;;
74229;SDS011;62589;12.568;99.958;2023-04-08T13:50:51;9.02;;;8.13;;
74229;SDS011;62589;12.568;99.958;2023-04-08T13:53:17;9.98;;;8.25;;
74229;SDS011;62589;12.568;99.958;2023-04-08T13:55:47;9.07;;;7.97;;
74229;SDS011;62589;12.568;99.958;2023-04-08T13:58:19;9.00;;;7.90;;
74229;SDS011;62589;12.568;99.958;2023-04-08T14:00:46;10.60;;;8.18;;
74229;SDS011;62589;12.568;99.958;2023-04-08T14:03:12;9.20;;;7.78;;
74229;SDS011;62589;12.568;99.958;2023-04-08T14:05:42;10.13;;;8.25;;
74229;SDS011;62589;12.568;99.958;2023-04-08T14:08:09;9.63;;;8.40;;
74229;SDS011;62589;12.568;99.958;2023-04-08T14:10:37;10.25;;;8.43;;
74229;SDS011;62589;12.568;99.958;2023-04-08T14:13:06;9.85;;;8.73;;
74229;SDS011;62589;12.568;99.958;2023-04-08T14:15:32;12.63;;;9.32;;
74229;SDS011;62589;12.568;99.958;2023-04-08T14:18:02;10.27;;;9.13;;
74229;SDS011;62589;12.568;99.958;2023-04-08T14:20:28;10.40;;;8.60;;
74229;SDS011;62589;12.568;99.958;2023-04-08T14:22:55;10.95;;;9.07;;
74229;SDS011;62589;12.568;99.958;2023-04-08T14:25:21;10.13;;;9.10;;
74229;SDS011;62589;12.568;99.958;2023-04-08T14:27:47;12.00;;;8.55;;
74229;SDS011;62589;12.568;99.958;2023-04-08T14:30:14;9.85;;;8.07;;
74229;SDS011;62589;12.568;99.958;2023-04-08T14:32:40;8.55;;;7.65;;
74229;SDS011;62589;12.568;99.958;2023-04-08T14:35:07;9.93;;;8.23;;
74229;SDS011;62589;12.568;99.958;2023-04-08T14:37:33;8.10;;;7.13;;
74229;SDS011;62589;12.568;99.958;2023-04-08T14:40:02;9.10;;;7.45;;
74229;SDS011;62589;12.568;99.958;2023-04-08T14:42:29;9.45;;;7.13;;
74229;SDS011;62589;12.568;99.958;2023-04-08T14:44:55;8.05;;;7.25;;
74229;SDS011;62589;12.568;99.958;2023-04-08T14:47:22;8.77;;;7.57;;
74229;SDS011;62589;12.568;99.958;2023-04-08T14:49:49;11.00;;;8.02;;
74229;SDS011;62589;12.568;99.958;2023-04-08T14:52:15;8.63;;;7.72;;
74229;SDS011;62589;12.568;99.958;2023-04-08T14:54:41;10.75;;;8.13;;
74229;SDS011;62589;12.568;99.958;2023-04-08T14:57:09;11.18;;;7.80;;
74229;SDS011;62589;12.568;99.958;2023-04-08T14:59:36;8.60;;;7.30;;
74229;SDS011;62589;12.568;99.958;2023-04-08T15:02:02;8.15;;;7.22;;
74229;SDS011;62589;12.568;99.958;2023-04-08T15:04:29;10.85;;;7.90;;